Spring Park, MN

9:10 PM CST on December 26, 2014 (GMT -0600)
Spring Park Bay | Change Station
CLOSE
Current Station
Personal Weather Station
Location: Mound, MN
Elevation: 956 ft
Nearby Weather Stations
Active Advisory: Winter Weather Advisory Active Notice: Local Storm Report

Elev 956 ft 44.93 °N, 93.63 °W | Updated 2 seconds ago

Snow
Snow
32.6 °F
Feels Like 27 °F
N
5.8
Wind Variable Wind from NNW
Gusts 11.0 mph

Today
High -- | Low -- °F
--% Chance of Precip.
Yesterday
High -- | Low -- °F
Precip. -- in
7:51 AM 4:38 PM
Waxing Crescent, 32% visible
Pressure 30.09 in
Visibility 1.2 miles
Clouds Scattered Clouds 800 ft
Overcast 2200 ft
Windchill 27 °F
Dew Point 33 °F
Humidity 99%
Rainfall 0.00 in
Snow Depth Not available.
UV 0 out of 12
Pollen .10 out of 12
Air Quality Not available.
Flu Activity Not available.
METAR KFCM 270253Z AUTO 01008KT 1 1/4SM -SN BR SCT008 OVC022 M02/M03 A3005 RMK AO2 SLP188 P0001 60002 T10171033 50003

More Conditions Fewer Conditions

Pressure 30.09 in
Visibility 1.2 miles
Clouds Scattered Clouds 800 ft
Overcast 2200 ft
Windchill 27 °F
Dew Point 33 °F
Humidity 99%
Rainfall 0.00 in
Snow Depth Not available.
UV 0 out of 12
Pollen .10 out of 12
Air Quality Not available.
Flu Activity Not available.
METAR KFCM 270253Z AUTO 01008KT 1 1/4SM -SN BR SCT008 OVC022 M02/M03 A3005 RMK AO2 SLP188 P0001 60002 T10171033 50003

More Conditions Fewer Conditions

10-Day Weather Forecast

Almanac

Astronomy

Dec. 26, 2014 Rise Set
Actual Time
Civil Twilight
Nautical Twilight
Astronomical Twilight
Moon
Length of Visible Light
Length of Day
Tomorrow will be .
, % of the Moon is Illuminated

Today's Extremes

State Highs State Lows

Community

WunderPhotos

Upload Photos

1,780,830 photos uploaded!

WunderBlogs® & News

Nearby

Air Quality

  Air Quality AQ Index Pollutant
Not available.

Snow Depth

Station Depth Elevation

Earthquake Activity

City Distance Mag. Time & Date
Minimum magnitude displayed is 2.5.

Coastal Water Temperatures

Place Temperature

Nearby Weather Stations